Time;durP1;ratioP1;P1;durP2;ratioP2;P2;SDS_P1;SDS_P2;PMS_P1;PMS_P2;Temp;Humidity;BMP_temperature;BMP_pressure;BME280_temperature;BME280_humidity;BME280_pressure;Samples;Min_cycle;Max_cycle;Signal;HPM_P1;HPM_P2
2023/03/04 00:01:04;;;;;;;22.83;9.03;;;5.20;99.90;;;;;;5031055;28;20232;-61
2023/03/04 00:03:32;;;;;;;20.20;9.23;;;5.20;99.90;;;;;;5033824;28;20682;-61
2023/03/04 00:06:03;;;;;;;12.70;9.10;;;5.20;99.90;;;;;;5031644;28;20235;-61
2023/03/04 00:08:31;;;;;;;25.00;9.60;;;5.10;99.90;;;;;;5033722;28;20221;-61
2023/03/04 00:10:59;;;;;;;17.43;9.07;;;5.10;99.90;;;;;;5023223;28;20221;-61
2023/03/04 00:13:29;;;;;;;14.03;8.70;;;5.10;99.90;;;;;;5028495;28;20692;-60
2023/03/04 00:15:57;;;;;;;19.00;8.87;;;5.10;99.90;;;;;;5036520;28;20215;-61
2023/03/04 00:18:26;;;;;;;21.13;9.20;;;5.10;99.90;;;;;;5032450;28;20221;-61
2023/03/04 00:20:54;;;;;;;17.50;8.70;;;5.10;99.90;;;;;;5022717;28;20212;-61
2023/03/04 00:23:22;;;;;;;15.57;7.77;;;5.00;99.90;;;;;;5031256;28;20293;-61
2023/03/04 00:25:51;;;;;;;20.93;8.70;;;5.00;99.90;;;;;;5032143;28;20271;-61
2023/03/04 00:28:19;;;;;;;29.33;8.17;;;5.00;99.90;;;;;;5015476;28;20206;-61
2023/03/04 00:30:49;;;;;;;17.40;7.83;;;5.00;99.90;;;;;;5030839;28;20222;-61
2023/03/04 00:33:17;;;;;;;19.43;7.53;;;5.00;99.90;;;;;;5031962;28;20571;-61
2023/03/04 00:35:46;;;;;;;20.87;7.27;;;5.00;99.90;;;;;;5030818;28;20225;-61
2023/03/04 00:38:14;;;;;;;20.27;7.57;;;5.00;99.90;;;;;;5029834;28;20232;-61
2023/03/04 00:40:42;;;;;;;17.00;7.10;;;5.00;99.90;;;;;;5033498;28;20225;-61
2023/03/04 00:43:11;;;;;;;11.90;6.50;;;5.00;99.90;;;;;;5033953;28;20277;-61
2023/03/04 00:45:39;;;;;;;21.20;6.77;;;5.00;99.90;;;;;;5032680;28;20214;-61
2023/03/04 00:48:08;;;;;;;14.07;6.40;;;5.00;99.90;;;;;;5031442;28;20713;-61
2023/03/04 00:50:37;;;;;;;13.37;6.57;;;5.00;99.90;;;;;;5029647;28;20236;-61
2023/03/04 00:53:06;;;;;;;17.47;6.93;;;5.00;99.90;;;;;;5028032;28;20217;-61
2023/03/04 00:55:34;;;;;;;19.53;7.20;;;4.90;99.90;;;;;;5031074;28;20316;-61
2023/03/04 00:58:02;;;;;;;15.90;6.57;;;4.90;99.90;;;;;;5030081;28;20292;-61
2023/03/04 01:00:30;;;;;;;15.13;6.93;;;5.00;99.90;;;;;;5021492;28;20221;-61
2023/03/04 01:02:59;;;;;;;19.37;6.70;;;5.00;99.90;;;;;;5029374;28;20332;-61
2023/03/04 01:05:28;;;;;;;18.13;6.73;;;5.00;99.90;;;;;;5026987;28;20252;-61
2023/03/04 01:07:57;;;;;;;17.57;6.77;;;4.90;99.90;;;;;;5026531;28;20222;-61
2023/03/04 01:10:25;;;;;;;12.50;6.47;;;4.90;99.90;;;;;;5031143;28;20647;-61
2023/03/04 01:12:53;;;;;;;16.50;6.20;;;4.90;99.90;;;;;;5030090;28;20272;-61
2023/03/04 01:15:21;;;;;;;16.90;7.10;;;4.90;99.90;;;;;;5030516;28;20291;-61
2023/03/04 01:17:50;;;;;;;14.70;6.40;;;4.90;99.90;;;;;;5030289;28;20214;-61
2023/03/04 01:20:18;;;;;;;17.07;6.20;;;4.90;99.90;;;;;;5017739;28;20230;-61
2023/03/04 01:22:48;;;;;;;15.93;6.60;;;4.90;99.90;;;;;;5027089;28;20220;-61
2023/03/04 01:25:16;;;;;;;11.70;6.40;;;4.90;99.90;;;;;;5030781;28;20193;-61
2023/03/04 01:27:44;;;;;;;20.43;6.33;;;4.90;99.90;;;;;;5031460;28;20268;-61
2023/03/04 01:30:13;;;;;;;20.47;7.43;;;4.90;99.90;;;;;;5024503;28;20773;-61
2023/03/04 01:32:42;;;;;;;14.77;6.53;;;4.90;99.90;;;;;;5028418;28;20216;-61
2023/03/04 01:35:10;;;;;;;16.23;6.57;;;4.90;99.90;;;;;;5024086;28;20766;-61
2023/03/04 01:37:38;;;;;;;17.20;6.83;;;4.90;99.90;;;;;;5031278;28;20247;-60
2023/03/04 01:40:13;;;;;;;19.13;6.90;;;4.90;99.90;;;;;;5024438;28;20186;-61
2023/03/04 01:42:41;;;;;;;12.73;6.20;;;4.90;99.90;;;;;;5028180;28;20271;-61
2023/03/04 01:45:13;;;;;;;16.97;6.43;;;4.90;99.90;;;;;;5024091;28;20630;-61
2023/03/04 01:47:47;;;;;;;16.77;7.00;;;4.90;99.90;;;;;;5017114;28;20259;-61
2023/03/04 01:50:19;;;;;;;18.83;6.93;;;4.90;99.90;;;;;;5029847;28;20225;-61
2023/03/04 01:52:48;;;;;;;20.53;6.80;;;4.90;99.90;;;;;;5032092;28;20729;-60
2023/03/04 01:55:20;;;;;;;15.87;7.00;;;4.90;99.90;;;;;;5029954;28;20900;-61
2023/03/04 01:57:49;;;;;;;20.70;6.60;;;4.90;99.90;;;;;;5031911;28;20225;-61
2023/03/04 02:00:27;;;;;;;16.47;6.17;;;4.90;99.90;;;;;;5028665;28;20225;-61
2023/03/04 02:03:00;;;;;;;16.93;6.83;;;4.90;99.90;;;;;;5020420;28;20213;-61
2023/03/04 02:05:30;;;;;;;20.10;6.57;;;4.90;99.90;;;;;;5024740;28;20268;-61
2023/03/04 02:08:00;;;;;;;16.43;7.40;;;4.90;99.90;;;;;;5028177;28;20735;-61
2023/03/04 02:10:31;;;;;;;20.17;6.63;;;4.90;99.90;;;;;;5029476;28;20252;-60
2023/03/04 02:13:00;;;;;;;18.77;6.80;;;4.90;99.90;;;;;;5025582;28;20220;-61
2023/03/04 02:15:29;;;;;;;14.60;6.30;;;4.90;99.90;;;;;;5028979;28;20217;-61
2023/03/04 02:17:57;;;;;;;14.17;5.90;;;4.90;99.90;;;;;;5029990;28;20213;-61
2023/03/04 02:20:35;;;;;;;16.27;6.73;;;4.90;99.90;;;;;;5027551;28;20716;-61
2023/03/04 02:23:11;;;;;;;22.50;5.83;;;4.90;99.90;;;;;;5025552;28;20221;-61
2023/03/04 02:25:45;;;;;;;22.43;6.63;;;4.90;99.90;;;;;;5021006;28;20250;-61
2023/03/04 02:28:15;;;;;;;18.43;6.17;;;4.90;99.90;;;;;;5028999;28;20231;-61
2023/03/04 02:30:44;;;;;;;17.63;6.33;;;4.90;99.90;;;;;;5027912;28;20696;-61
2023/03/04 02:33:17;;;;;;;18.60;7.20;;;5.00;99.90;;;;;;5027034;28;20213;-61
2023/03/04 02:35:46;;;;;;;21.40;5.87;;;5.00;99.90;;;;;;5028081;28;20705;-61
2023/03/04 02:38:14;;;;;;;20.50;6.73;;;5.10;99.90;;;;;;5029543;28;20287;-61
2023/03/04 02:40:47;;;;;;;20.73;6.23;;;5.10;99.90;;;;;;5026385;28;20316;-61
2023/03/04 02:43:16;;;;;;;9.80;6.00;;;5.00;99.90;;;;;;5024101;28;20232;-61
2023/03/04 02:45:46;;;;;;;15.07;6.20;;;5.00;99.90;;;;;;5022568;28;20267;-61
2023/03/04 02:48:17;;;;;;;17.07;5.77;;;5.00;99.90;;;;;;5024494;28;20270;-61
2023/03/04 02:50:48;;;;;;;21.13;6.83;;;5.00;99.90;;;;;;5028955;28;20228;-61
2023/03/04 02:53:16;;;;;;;27.03;6.60;;;5.00;99.90;;;;;;5024729;28;20221;-61
2023/03/04 02:55:45;;;;;;;12.80;5.63;;;5.00;99.90;;;;;;5028305;28;20224;-61
2023/03/04 02:58:13;;;;;;;16.07;5.60;;;5.00;99.90;;;;;;5033424;28;20267;-61
2023/03/04 03:00:46;;;;;;;21.30;6.10;;;5.00;99.90;;;;;;5026616;28;20221;-61
2023/03/04 03:03:14;;;;;;;15.47;6.20;;;5.00;99.90;;;;;;5031780;28;20533;-61
2023/03/04 03:05:43;;;;;;;22.40;6.10;;;5.00;99.90;;;;;;5035102;28;20217;-61
2023/03/04 03:08:11;;;;;;;21.70;6.23;;;5.00;99.90;;;;;;5032570;28;20225;-61
2023/03/04 03:10:40;;;;;;;17.83;5.47;;;5.00;99.90;;;;;;5031747;28;20684;-61
2023/03/04 03:13:08;;;;;;;17.20;5.83;;;5.00;99.90;;;;;;5031373;28;20197;-61
2023/03/04 03:15:40;;;;;;;19.03;5.50;;;5.10;99.90;;;;;;5029863;28;20266;-61
2023/03/04 03:18:11;;;;;;;18.73;5.80;;;5.10;99.90;;;;;;5034869;28;20217;-61
2023/03/04 03:20:39;;;;;;;22.20;6.17;;;5.10;99.90;;;;;;5035014;28;20209;-61
2023/03/04 03:23:08;;;;;;;10.47;5.30;;;5.10;99.90;;;;;;5030968;28;20221;-61
2023/03/04 03:25:37;;;;;;;20.10;5.57;;;5.10;99.90;;;;;;5032446;28;20185;-61
2023/03/04 03:28:05;;;;;;;16.73;5.90;;;5.20;99.90;;;;;;5032315;28;20207;-61
2023/03/04 03:30:33;;;;;;;19.23;5.47;;;5.20;99.90;;;;;;5035128;28;20221;-61
2023/03/04 03:33:02;;;;;;;14.87;4.97;;;5.20;99.90;;;;;;5032368;28;20217;-61
2023/03/04 03:35:31;;;;;;;25.00;5.77;;;5.20;99.90;;;;;;5036648;28;20313;-61
2023/03/04 03:37:59;;;;;;;19.07;5.83;;;5.20;99.90;;;;;;5036533;28;20216;-61
2023/03/04 03:40:28;;;;;;;19.53;5.77;;;5.30;99.90;;;;;;5035770;28;20207;-60
2023/03/04 03:42:56;;;;;;;13.60;5.70;;;5.20;99.90;;;;;;5035406;28;20197;-61
2023/03/04 03:45:24;;;;;;;17.53;6.43;;;5.20;99.90;;;;;;5034579;28;20229;-61
2023/03/04 03:47:53;;;;;;;15.37;5.37;;;5.20;99.90;;;;;;5034693;28;20217;-61
2023/03/04 03:50:21;;;;;;;18.57;6.13;;;5.30;99.90;;;;;;5029463;28;20794;-61
2023/03/04 03:52:51;;;;;;;20.70;5.93;;;5.30;99.90;;;;;;5028381;28;20279;-61
2023/03/04 03:55:19;;;;;;;26.23;6.27;;;5.30;99.90;;;;;;5034518;28;20225;-61
2023/03/04 03:57:47;;;;;;;16.10;5.93;;;5.30;99.90;;;;;;5033073;28;20225;-61
2023/03/04 04:00:17;;;;;;;22.00;6.10;;;5.30;99.90;;;;;;5034343;28;20217;-61
2023/03/04 04:02:45;;;;;;;13.73;5.10;;;5.30;99.90;;;;;;5031738;28;20232;-61
2023/03/04 04:05:14;;;;;;;20.23;5.10;;;5.30;99.90;;;;;;5031090;28;20225;-61
2023/03/04 04:07:42;;;;;;;14.30;4.37;;;5.30;99.90;;;;;;5036147;28;20212;-60
2023/03/04 04:10:12;;;;;;;10.93;4.53;;;5.30;99.90;;;;;;5033798;28;20201;-61
2023/03/04 04:12:40;;;;;;;20.80;5.40;;;5.40;99.90;;;;;;5036140;28;20217;-61
2023/03/04 04:15:10;;;;;;;14.17;4.90;;;5.40;99.90;;;;;;5025740;28;20217;-61
2023/03/04 04:17:39;;;;;;;14.93;4.60;;;5.40;99.90;;;;;;5013637;28;20853;-61
2023/03/04 04:20:11;;;;;;;18.87;4.90;;;5.30;99.90;;;;;;5019478;28;20748;-61
2023/03/04 04:22:42;;;;;;;9.60;4.27;;;5.30;99.90;;;;;;5015825;28;20312;-61
2023/03/04 04:25:12;;;;;;;15.83;4.50;;;5.30;99.90;;;;;;5011511;28;20620;-61
2023/03/04 04:27:40;;;;;;;11.83;4.20;;;5.30;99.90;;;;;;5013469;28;20335;-61
2023/03/04 04:30:09;;;;;;;20.20;4.30;;;5.30;99.90;;;;;;5006497;28;20257;-61
2023/03/04 04:32:43;;;;;;;13.60;4.20;;;5.30;99.90;;;;;;5010981;28;20312;-61
2023/03/04 04:35:11;;;;;;;12.77;4.20;;;5.30;99.90;;;;;;5013739;28;20214;-61
2023/03/04 04:37:39;;;;;;;14.80;4.07;;;5.30;99.90;;;;;;5004487;28;20198;-61
2023/03/04 04:40:10;;;;;;;18.20;4.67;;;5.30;99.90;;;;;;5010523;28;20237;-61
2023/03/04 04:42:40;;;;;;;12.17;4.23;;;5.30;99.90;;;;;;5007588;28;20272;-61
2023/03/04 04:45:09;;;;;;;10.70;4.10;;;5.30;99.90;;;;;;5012959;28;20504;-61
2023/03/04 04:47:37;;;;;;;21.17;4.60;;;5.30;99.90;;;;;;5003762;28;20210;-61
2023/03/04 04:50:07;;;;;;;18.47;4.67;;;5.30;99.90;;;;;;5009870;28;20603;-61
2023/03/04 04:52:35;;;;;;;16.80;5.33;;;5.30;99.90;;;;;;5004861;28;20199;-61
2023/03/04 04:55:04;;;;;;;13.10;4.87;;;5.30;99.90;;;;;;5011562;28;20230;-61
2023/03/04 04:57:33;;;;;;;13.90;4.73;;;5.20;99.90;;;;;;5005575;28;20276;-61
2023/03/04 05:00:04;;;;;;;14.77;4.60;;;5.20;99.90;;;;;;5016422;28;20687;-61
2023/03/04 05:02:35;;;;;;;13.87;4.70;;;5.20;99.90;;;;;;5022348;28;20287;-61
2023/03/04 05:05:04;;;;;;;15.97;5.07;;;5.20;99.90;;;;;;5022228;28;20731;-62
2023/03/04 05:07:32;;;;;;;13.93;4.07;;;5.20;99.90;;;;;;5019510;28;20726;-61
2023/03/04 05:10:01;;;;;;;16.93;4.97;;;5.20;99.90;;;;;;5028665;28;21485;-61
2023/03/04 05:12:29;;;;;;;17.10;5.40;;;5.20;99.90;;;;;;5025939;28;20707;-61
2023/03/04 05:14:57;;;;;;;17.60;4.80;;;5.20;99.90;;;;;;5027885;28;20761;-61
2023/03/04 05:17:27;;;;;;;20.00;4.77;;;5.20;99.90;;;;;;5030802;28;20229;-61
2023/03/04 05:19:55;;;;;;;14.20;5.00;;;5.20;99.90;;;;;;5026867;28;20749;-61
2023/03/04 05:22:24;;;;;;;16.50;5.47;;;5.20;99.90;;;;;;5026171;28;20193;-61
2023/03/04 05:24:52;;;;;;;12.57;4.93;;;5.20;99.90;;;;;;5026720;28;20218;-61
2023/03/04 05:27:20;;;;;;;15.80;5.90;;;5.10;99.90;;;;;;5029898;28;20691;-61
2023/03/04 05:29:48;;;;;;;16.80;5.83;;;5.10;99.90;;;;;;5012654;28;20225;-61
2023/03/04 05:32:16;;;;;;;15.47;5.80;;;5.10;99.90;;;;;;5020772;28;20249;-61
2023/03/04 05:34:46;;;;;;;15.53;5.73;;;5.10;99.90;;;;;;5024544;28;20502;-61
2023/03/04 05:37:14;;;;;;;14.10;5.97;;;5.10;99.90;;;;;;5025230;28;20649;-61
2023/03/04 05:39:42;;;;;;;11.27;5.70;;;5.10;99.90;;;;;;5033935;28;20248;-61
2023/03/04 05:42:11;;;;;;;18.43;6.43;;;5.10;99.90;;;;;;5028683;28;20232;-61
2023/03/04 05:44:39;;;;;;;16.87;6.43;;;5.20;99.90;;;;;;5021829;28;20229;-61
2023/03/04 05:47:08;;;;;;;15.40;6.93;;;5.20;99.90;;;;;;5025112;28;20225;-61
2023/03/04 05:49:37;;;;;;;17.53;6.43;;;5.20;99.90;;;;;;5024628;28;20194;-61
2023/03/04 05:52:06;;;;;;;14.03;6.27;;;5.20;99.90;;;;;;5023007;28;20205;-61
2023/03/04 05:54:34;;;;;;;20.00;6.53;;;5.20;99.90;;;;;;5029487;28;20232;-61
2023/03/04 05:57:03;;;;;;;20.17;6.60;;;5.20;99.90;;;;;;5020545;28;20317;-61
2023/03/04 05:59:31;;;;;;;17.10;6.33;;;5.10;99.90;;;;;;5027725;28;20265;-61
2023/03/04 06:01:59;;;;;;;22.87;6.57;;;5.10;99.90;;;;;;5010651;28;20264;-61
2023/03/04 06:04:27;;;;;;;17.23;5.77;;;5.10;99.90;;;;;;5016906;28;20251;-60
2023/03/04 06:06:56;;;;;;;13.97;5.57;;;5.10;99.90;;;;;;5022810;28;20312;-61
2023/03/04 06:09:25;;;;;;;10.30;5.50;;;5.20;99.90;;;;;;5023832;28;20268;-61
2023/03/04 06:11:53;;;;;;;15.37;6.27;;;5.20;99.90;;;;;;5024833;28;20585;-61
2023/03/04 06:14:22;;;;;;;13.27;5.80;;;5.20;99.90;;;;;;5025043;28;20220;-61
2023/03/04 06:16:50;;;;;;;18.83;6.43;;;5.20;99.90;;;;;;5027708;28;20224;-61
2023/03/04 06:19:18;;;;;;;13.37;5.70;;;5.20;99.90;;;;;;5030407;28;20197;-61
2023/03/04 06:21:47;;;;;;;14.43;5.80;;;5.20;99.90;;;;;;5020448;28;20267;-61
2023/03/04 06:24:15;;;;;;;13.30;5.23;;;5.10;99.90;;;;;;5022051;28;20222;-61
2023/03/04 06:26:45;;;;;;;12.43;5.50;;;5.10;99.90;;;;;;5027661;28;20217;-61
2023/03/04 06:29:13;;;;;;;17.63;5.70;;;5.10;99.90;;;;;;5028533;28;20279;-61
2023/03/04 06:31:42;;;;;;;15.23;4.77;;;5.10;99.90;;;;;;5018294;28;20273;-61
2023/03/04 06:34:10;;;;;;;20.80;4.97;;;5.10;99.90;;;;;;5025412;28;20288;-61
2023/03/04 06:36:38;;;;;;;8.80;4.93;;;5.10;99.90;;;;;;5022517;28;20287;-61
2023/03/04 06:39:08;;;;;;;12.80;4.83;;;5.10;99.90;;;;;;5027392;28;20232;-61
2023/03/04 06:41:36;;;;;;;14.70;4.60;;;5.10;99.90;;;;;;5027415;28;20217;-61
2023/03/04 06:44:06;;;;;;;13.00;4.43;;;5.10;99.90;;;;;;5021327;28;20299;-61
2023/03/04 06:46:34;;;;;;;12.27;4.30;;;5.10;99.90;;;;;;5028029;28;20201;-61
2023/03/04 06:49:02;;;;;;;11.83;4.60;;;5.10;99.90;;;;;;5026423;28;20255;-61
2023/03/04 06:51:30;;;;;;;12.70;4.23;;;5.10;99.90;;;;;;5017310;28;20224;-61
2023/03/04 06:53:59;;;;;;;15.03;4.60;;;5.10;99.90;;;;;;5026719;28;20537;-61
2023/03/04 06:56:27;;;;;;;12.43;3.80;;;5.20;99.90;;;;;;5024389;28;20870;-61
2023/03/04 06:58:55;;;;;;;12.40;3.90;;;5.20;99.90;;;;;;5022362;28;20218;-61
2023/03/04 07:01:26;;;;;;;16.40;4.50;;;5.20;99.90;;;;;;5024415;28;20221;-61
2023/03/04 07:03:56;;;;;;;13.40;5.07;;;5.20;99.90;;;;;;5020946;28;20706;-61
2023/03/04 07:06:26;;;;;;;12.87;5.40;;;5.20;99.90;;;;;;5025360;28;20213;-61
2023/03/04 07:08:56;;;;;;;13.63;6.00;;;5.20;99.90;;;;;;5023787;28;20271;-61
2023/03/04 07:11:25;;;;;;;15.93;5.40;;;5.20;99.90;;;;;;5016322;28;20712;-61
2023/03/04 07:13:53;;;;;;;14.90;7.80;;;5.20;99.90;;;;;;5024640;28;20236;-61
2023/03/04 07:16:23;;;;;;;19.43;7.60;;;5.20;99.90;;;;;;5024614;28;20205;-61
2023/03/04 07:18:52;;;;;;;15.50;5.10;;;5.30;99.90;;;;;;5024331;28;20217;-61
2023/03/04 07:21:20;;;;;;;21.93;5.33;;;5.30;99.90;;;;;;5026803;28;20213;-61
2023/03/04 07:23:49;;;;;;;17.07;5.07;;;5.30;99.90;;;;;;5025398;28;20217;-61
2023/03/04 07:26:19;;;;;;;10.83;4.47;;;5.30;99.90;;;;;;5019490;28;20221;-61
2023/03/04 07:28:47;;;;;;;15.83;5.13;;;5.30;99.90;;;;;;5023804;28;20312;-61
2023/03/04 07:31:22;;;;;;;18.97;4.77;;;5.30;99.90;;;;;;5018956;28;20579;-61
2023/03/04 07:33:52;;;;;;;10.03;4.43;;;5.30;99.90;;;;;;5019060;28;20634;-61
2023/03/04 07:36:21;;;;;;;14.23;4.53;;;5.40;99.90;;;;;;5020109;28;20237;-61
2023/03/04 07:38:50;;;;;;;21.23;4.87;;;5.40;99.90;;;;;;5022181;28;20285;-61
2023/03/04 07:41:19;;;;;;;12.47;4.30;;;5.40;99.90;;;;;;5025654;28;20228;-61
2023/03/04 07:43:47;;;;;;;12.00;4.30;;;5.40;99.90;;;;;;4998940;28;20300;-61
2023/03/04 07:46:16;;;;;;;10.63;4.53;;;5.40;99.90;;;;;;5025701;28;20695;-61
2023/03/04 07:48:45;;;;;;;13.17;4.43;;;5.50;99.90;;;;;;5023222;28;20231;-61
2023/03/04 07:51:16;;;;;;;8.10;4.90;;;5.50;99.90;;;;;;5022206;28;20253;-61
2023/03/04 07:53:47;;;;;;;16.47;4.53;;;5.50;99.90;;;;;;5022058;28;20276;-61
2023/03/04 07:56:17;;;;;;;13.53;4.30;;;5.60;99.90;;;;;;5020851;28;20244;-61
2023/03/04 07:58:46;;;;;;;8.93;4.40;;;5.60;99.90;;;;;;5030103;28;20193;-61
2023/03/04 08:01:18;;;;;;;9.37;3.93;;;5.60;99.90;;;;;;5022226;28;20213;-61
2023/03/04 08:03:46;;;;;;;8.70;3.67;;;5.60;99.90;;;;;;5023540;28;20214;-61
2023/03/04 08:06:18;;;;;;;12.40;3.90;;;5.60;99.90;;;;;;5027361;28;20226;-61
2023/03/04 08:08:48;;;;;;;8.40;3.30;;;5.60;99.90;;;;;;5030121;28;20219;-61
2023/03/04 08:11:18;;;;;;;9.13;3.03;;;5.60;99.90;;;;;;5022641;28;21459;-61
2023/03/04 08:13:47;;;;;;;9.37;3.30;;;5.60;99.90;;;;;;5027302;28;20209;-61
2023/03/04 08:16:18;;;;;;;5.23;2.67;;;5.70;99.90;;;;;;5020760;28;20203;-61
2023/03/04 08:18:48;;;;;;;10.63;3.77;;;5.70;99.90;;;;;;5020892;28;20581;-61
2023/03/04 08:21:20;;;;;;;8.20;3.37;;;5.80;99.90;;;;;;5030358;28;20226;-61
2023/03/04 08:23:49;;;;;;;9.90;3.27;;;5.80;99.90;;;;;;5031643;28;20279;-61
2023/03/04 08:26:20;;;;;;;8.33;3.03;;;5.80;99.90;;;;;;5024086;28;20218;-61
2023/03/04 08:28:48;;;;;;;10.60;2.67;;;5.90;99.90;;;;;;5029042;28;20221;-61
2023/03/04 08:31:18;;;;;;;10.77;2.90;;;5.90;99.90;;;;;;5022631;28;20193;-61
2023/03/04 08:33:47;;;;;;;14.10;3.30;;;6.00;99.90;;;;;;5026444;28;20268;-61
2023/03/04 08:36:17;;;;;;;11.43;3.33;;;6.10;99.90;;;;;;5030206;28;20571;-61
2023/03/04 08:38:45;;;;;;;13.33;3.53;;;6.20;99.90;;;;;;5027199;28;20226;-61
2023/03/04 08:41:15;;;;;;;13.70;3.33;;;6.30;99.90;;;;;;5032873;28;20240;-61
2023/03/04 08:43:44;;;;;;;7.90;3.07;;;6.40;99.90;;;;;;5023099;28;21072;-61
2023/03/04 08:46:13;;;;;;;14.30;3.43;;;6.60;99.90;;;;;;5022447;28;20198;-61
2023/03/04 08:48:41;;;;;;;13.90;3.37;;;6.70;99.90;;;;;;5028325;28;20918;-62
2023/03/04 08:51:13;;;;;;;9.93;3.30;;;6.70;99.90;;;;;;5026621;28;20283;-61
2023/03/04 08:53:43;;;;;;;11.97;3.40;;;6.80;99.90;;;;;;5026178;28;20218;-61
2023/03/04 08:56:12;;;;;;;12.67;3.33;;;6.80;99.90;;;;;;5023109;28;20276;-62
2023/03/04 08:58:40;;;;;;;7.80;3.53;;;6.80;99.90;;;;;;5026038;28;20240;-61
2023/03/04 09:01:10;;;;;;;6.43;3.30;;;6.70;99.90;;;;;;5024676;28;20201;-61
2023/03/04 09:03:39;;;;;;;12.87;3.60;;;6.70;99.90;;;;;;5028184;28;20217;-62
2023/03/04 09:06:09;;;;;;;6.60;3.70;;;6.70;99.90;;;;;;5031603;28;20221;-61
2023/03/04 09:08:37;;;;;;;14.13;4.03;;;6.70;99.90;;;;;;5018764;28;20214;-59
2023/03/04 09:11:07;;;;;;;8.80;3.73;;;6.70;99.90;;;;;;5027339;28;20221;-59
2023/03/04 09:13:35;;;;;;;10.87;3.50;;;6.90;99.90;;;;;;5026677;28;20245;-59
2023/03/04 09:16:10;;;;;;;14.70;3.43;;;6.90;99.90;;;;;;5031105;28;20247;-59
2023/03/04 09:18:39;;;;;;;7.00;3.70;;;7.00;99.90;;;;;;5032657;28;20244;-60
2023/03/04 09:21:08;;;;;;;10.97;3.47;;;7.00;99.90;;;;;;5030311;28;20218;-60
2023/03/04 09:23:37;;;;;;;11.60;3.57;;;7.00;99.90;;;;;;5026874;28;20218;-60
2023/03/04 09:26:20;;;;;;;9.97;3.27;;;7.00;99.90;;;;;;5025702;28;20229;-60
2023/03/04 09:28:51;;;;;;;6.07;3.53;;;7.00;99.90;;;;;;5028042;28;20851;-60
2023/03/04 09:31:21;;;;;;;8.57;3.40;;;7.00;99.90;;;;;;5031888;28;20251;-60
2023/03/04 09:33:49;;;;;;;6.07;3.70;;;7.00;99.90;;;;;;5031463;28;20220;-60
2023/03/04 09:36:18;;;;;;;10.67;3.23;;;7.10;99.90;;;;;;5017775;28;20237;-60
2023/03/04 09:38:46;;;;;;;10.83;3.83;;;7.10;99.90;;;;;;5024853;28;20218;-60
2023/03/04 09:41:18;;;;;;;5.00;3.17;;;7.20;99.90;;;;;;5026000;28;20257;-60
2023/03/04 09:43:48;;;;;;;9.33;3.83;;;7.20;99.90;;;;;;5020640;28;20636;-60
2023/03/04 09:46:22;;;;;;;8.70;3.97;;;7.30;99.90;;;;;;5030774;28;20728;-60
2023/03/04 09:48:54;;;;;;;10.10;4.37;;;7.30;99.90;;;;;;5026510;28;20302;-60
2023/03/04 09:51:28;;;;;;;8.60;4.40;;;7.40;99.90;;;;;;5027910;28;20282;-60
2023/03/04 09:54:07;;;;;;;7.93;4.40;;;7.40;99.90;;;;;;5017905;28;20225;-60
2023/03/04 09:56:40;;;;;;;12.53;4.80;;;7.50;99.90;;;;;;5021223;28;20232;-60
2023/03/04 09:59:17;;;;;;;11.57;5.00;;;7.50;99.90;;;;;;5022569;28;20229;-60
2023/03/04 10:01:50;;;;;;;9.47;4.23;;;7.60;99.90;;;;;;5026266;28;20185;-60
2023/03/04 10:04:31;;;;;;;8.87;4.53;;;7.80;99.90;;;;;;5028112;28;20189;-60
2023/03/04 10:07:00;;;;;;;12.47;4.47;;;7.90;99.90;;;;;;5020880;28;20218;-60
2023/03/04 10:09:32;;;;;;;9.00;4.10;;;8.00;99.90;;;;;;5021341;28;20217;-60
2023/03/04 10:12:05;;;;;;;11.47;4.20;;;8.10;99.90;;;;;;5022908;28;20264;-60
2023/03/04 10:14:37;;;;;;;8.77;3.53;;;8.30;99.90;;;;;;5028513;28;20221;-60
2023/03/04 10:17:13;;;;;;;11.10;4.53;;;8.50;99.90;;;;;;5027263;28;20714;-61
2023/03/04 10:19:55;;;;;;;4.30;3.30;;;8.40;99.90;;;;;;5019549;28;20190;-60
2023/03/04 10:22:28;;;;;;;12.67;3.70;;;8.30;99.90;;;;;;5017513;28;20198;-60
2023/03/04 10:24:59;;;;;;;7.00;3.30;;;8.20;99.90;;;;;;5018440;28;20226;-60
2023/03/04 10:27:29;;;;;;;12.93;3.60;;;8.10;99.90;;;;;;5023144;28;20217;-60
2023/03/04 10:30:00;;;;;;;9.83;3.97;;;8.00;99.90;;;;;;5015596;28;20253;-60
2023/03/04 10:32:28;;;;;;;8.87;3.63;;;7.90;99.90;;;;;;5027408;28;20304;-60
2023/03/04 10:34:57;;;;;;;14.73;3.27;;;7.90;99.90;;;;;;5025429;28;20248;-60
2023/03/04 10:37:42;;;;;;;9.77;3.40;;;7.80;99.90;;;;;;5021156;28;20217;-60
2023/03/04 10:40:19;;;;;;;6.97;3.60;;;7.90;99.90;;;;;;5018355;28;20218;-60
2023/03/04 10:42:51;;;;;;;8.60;3.50;;;7.90;99.90;;;;;;5020770;28;20218;-60
2023/03/04 10:45:25;;;;;;;6.27;3.23;;;7.90;99.90;;;;;;5024524;28;20268;-60
2023/03/04 10:47:54;;;;;;;5.80;3.33;;;8.00;99.90;;;;;;5022175;28;20279;-60
2023/03/04 10:50:24;;;;;;;7.60;3.10;;;8.10;99.90;;;;;;5018442;28;20580;-60
2023/03/04 10:52:55;;;;;;;11.13;3.50;;;8.30;99.90;;;;;;5023983;28;20884;-60
2023/03/04 10:55:27;;;;;;;10.83;3.20;;;8.40;99.90;;;;;;5018590;28;20225;-61
2023/03/04 10:58:02;;;;;;;8.63;3.33;;;8.60;99.90;;;;;;5023347;28;20680;-61
2023/03/04 11:00:32;;;;;;;4.57;3.20;;;8.80;99.90;;;;;;5019709;28;20213;-60
2023/03/04 11:03:23;;;;;;;5.20;3.50;;;8.90;99.90;;;;;;5024980;28;20317;-60
2023/03/04 11:06:05;;;;;;;8.23;3.50;;;9.00;99.90;;;;;;5022167;28;20220;-60
2023/03/04 11:08:34;;;;;;;6.53;3.50;;;9.20;99.90;;;;;;5019640;28;20259;-61
2023/03/04 11:11:02;;;;;;;8.97;3.03;;;9.30;99.90;;;;;;5019655;28;20221;-60
2023/03/04 11:13:32;;;;;;;6.97;3.10;;;9.40;99.90;;;;;;5021336;28;20221;-60
2023/03/04 11:16:02;;;;;;;11.57;3.77;;;9.50;99.90;;;;;;5016227;28;20189;-61
2023/03/04 11:18:42;;;;;;;8.63;3.13;;;9.50;99.90;;;;;;5027670;28;20209;-61
2023/03/04 11:21:17;;;;;;;5.90;3.13;;;9.50;99.90;;;;;;5033823;28;20304;-61
2023/03/04 11:23:50;;;;;;;8.43;3.57;;;9.30;99.90;;;;;;5033512;28;20216;-60
2023/03/04 11:26:22;;;;;;;11.60;3.33;;;9.40;99.90;;;;;;5029457;28;20274;-60
2023/03/04 11:28:55;;;;;;;5.03;3.10;;;9.60;99.90;;;;;;5023126;28;20240;-61
2023/03/04 11:31:30;;;;;;;7.03;3.17;;;9.90;99.90;;;;;;5027703;28;20185;-60
2023/03/04 11:34:02;;;;;;;9.60;3.20;;;10.10;99.90;;;;;;5027595;28;20197;-60
2023/03/04 11:36:38;;;;;;;5.07;2.97;;;10.30;99.90;;;;;;5025237;28;20270;-60
2023/03/04 11:39:16;;;;;;;3.80;2.50;;;10.30;99.90;;;;;;5019562;28;20271;-60
2023/03/04 11:41:50;;;;;;;6.10;2.40;;;10.30;99.90;;;;;;5029359;28;20248;-60
2023/03/04 11:44:20;;;;;;;6.70;2.40;;;10.10;99.90;;;;;;5027687;28;20264;-60
2023/03/04 11:47:00;;;;;;;5.60;2.57;;;10.00;99.90;;;;;;5028769;28;20217;-60
2023/03/04 11:49:55;;;;;;;4.30;2.20;;;9.80;99.90;;;;;;5027062;28;20279;-60
2023/03/04 11:52:36;;;;;;;2.93;2.07;;;9.70;99.90;;;;;;5024876;28;20659;-60
2023/03/04 11:55:24;;;;;;;2.53;2.00;;;9.50;99.90;;;;;;5022498;28;20940;-60
2023/03/04 11:58:01;;;;;;;3.00;1.83;;;9.40;99.90;;;;;;5030845;28;20214;-60
2023/03/04 12:00:38;;;;;;;2.37;2.03;;;9.40;99.90;;;;;;5026407;28;20216;-60
2023/03/04 12:03:33;;;;;;;7.40;2.10;;;9.30;99.90;;;;;;5028229;28;21007;-60
2023/03/04 12:06:08;;;;;;;2.47;2.27;;;9.20;99.90;;;;;;5023122;28;20225;-60
2023/03/04 12:08:59;;;;;;;4.80;2.13;;;9.40;99.90;;;;;;5023301;28;20225;-60
2023/03/04 12:11:39;;;;;;;5.37;2.33;;;9.70;99.90;;;;;;5010784;28;20271;-60
2023/03/04 12:14:30;;;;;;;4.87;1.80;;;10.20;99.90;;;;;;5019566;28;20703;-60
2023/03/04 12:17:30;;;;;;;6.67;2.10;;;10.80;99.90;;;;;;5021432;28;20287;-60
2023/03/04 12:20:41;;;;;;;1.70;1.60;;;11.20;99.90;;;;;;5022496;28;20226;-61
2023/03/04 12:23:29;;;;;;;3.13;2.13;;;11.20;99.90;;;;;;5022412;28;20221;-60
2023/03/04 12:26:05;;;;;;;3.60;1.77;;;11.00;99.90;;;;;;5025169;28;20228;-60
2023/03/04 12:28:53;;;;;;;3.70;2.30;;;10.70;99.90;;;;;;5027290;28;20237;-60
2023/03/04 12:31:40;;;;;;;4.43;2.13;;;10.50;99.90;;;;;;5022985;28;20198;-60
2023/03/04 12:34:38;;;;;;;4.03;2.00;;;10.10;99.90;;;;;;5025027;28;20202;-59
2023/03/04 12:37:32;;;;;;;3.60;1.83;;;10.00;99.90;;;;;;5017070;28;20557;-60
2023/03/04 12:40:23;;;;;;;3.10;1.90;;;9.90;99.90;;;;;;5022761;28;20213;-60
2023/03/04 12:43:05;;;;;;;1.60;1.50;;;9.90;99.90;;;;;;5027277;28;20236;-61
2023/03/04 12:45:41;;;;;;;3.67;2.10;;;10.00;99.90;;;;;;5021127;28;20267;-60
2023/03/04 12:48:17;;;;;;;2.83;2.17;;;10.00;99.90;;;;;;5023360;28;20221;-60
2023/03/04 12:50:56;;;;;;;3.17;1.90;;;10.10;99.90;;;;;;5017157;28;20244;-60
2023/03/04 12:53:30;;;;;;;3.07;1.97;;;10.00;99.90;;;;;;5023741;28;20240;-60
2023/03/04 12:56:00;;;;;;;2.20;2.00;;;10.00;99.90;;;;;;5021168;28;20241;-60
2023/03/04 12:58:31;;;;;;;2.00;1.90;;;9.90;99.90;;;;;;5026962;28;20225;-60
2023/03/04 13:01:06;;;;;;;2.43;2.20;;;9.80;99.90;;;;;;5022515;28;20221;-60
2023/03/04 13:03:45;;;;;;;2.30;1.60;;;9.60;99.90;;;;;;5024984;28;20247;-60
2023/03/04 13:06:28;;;;;;;1.60;1.60;;;9.50;99.90;;;;;;5023314;28;20671;-60
2023/03/04 13:09:10;;;;;;;1.90;1.80;;;9.20;99.90;;;;;;5026767;28;20315;-60